createdAt,value
2022-12-26T00:02:05.088Z,5.50
2022-12-26T00:04:50.994Z,5.28
2022-12-26T00:07:18.112Z,5.05
2022-12-26T00:09:44.721Z,5.25
2022-12-26T00:12:11.238Z,5.65
2022-12-26T00:14:39.367Z,4.80
2022-12-26T00:17:05.849Z,5.50
2022-12-26T00:19:32.356Z,5.30
2022-12-26T00:21:58.889Z,5.40
2022-12-26T00:24:25.438Z,4.90
2022-12-26T00:26:51.998Z,5.70
2022-12-26T00:29:18.647Z,6.03
2022-12-26T00:31:45.532Z,5.63
2022-12-26T00:34:12.347Z,5.82
2022-12-26T00:36:38.861Z,5.10
2022-12-26T00:39:05.382Z,5.38
2022-12-26T00:41:32.294Z,4.97
2022-12-26T00:43:59.048Z,6.35
2022-12-26T00:46:27.127Z,6.05
2022-12-26T00:48:53.844Z,5.65
2022-12-26T00:51:20.629Z,5.38
2022-12-26T00:53:47.190Z,4.68
2022-12-26T00:56:13.788Z,5.03
2022-12-26T00:58:42.138Z,5.90
2022-12-26T01:01:20.829Z,5.72
2022-12-26T01:03:48.426Z,5.30
2022-12-26T01:06:15.295Z,5.72
2022-12-26T01:08:42.746Z,5.25
2022-12-26T01:11:13.248Z,5.88
2022-12-26T01:13:40.022Z,6.32
2022-12-26T01:16:07.728Z,5.55
2022-12-26T01:18:35.023Z,5.22
2022-12-26T01:21:04.604Z,5.80
2022-12-26T01:23:31.196Z,5.82
2022-12-26T01:26:18.229Z,5.85
2022-12-26T01:28:44.251Z,5.57
2022-12-26T01:31:10.889Z,6.03
2022-12-26T01:33:37.523Z,6.18
2022-12-26T01:36:04.303Z,5.43
2022-12-26T01:38:30.847Z,5.75
2022-12-26T01:41:16.247Z,6.13
2022-12-26T01:43:53.785Z,5.03
2022-12-26T01:46:29.144Z,5.53
2022-12-26T01:48:59.640Z,6.35
2022-12-26T01:51:31.737Z,5.68
2022-12-26T01:54:40.897Z,5.40
2022-12-26T01:56:47.295Z,5.68
2022-12-26T01:59:19.391Z,5.25
2022-12-26T02:01:49.685Z,5.47
2022-12-26T02:04:41.324Z,5.75
2022-12-26T02:07:07.985Z,5.60
2022-12-26T02:09:35.138Z,5.70
2022-12-26T02:12:35.673Z,5.28
2022-12-26T02:14:58.045Z,7.10
2022-12-26T02:17:26.301Z,6.50
2022-12-26T02:20:02.041Z,5.30
2022-12-26T02:22:31.813Z,6.63
2022-12-26T02:25:19.890Z,6.57
2022-12-26T02:28:11.263Z,6.65
2022-12-26T02:30:56.696Z,5.57
2022-12-26T02:33:39.268Z,5.63
2022-12-26T02:36:26.647Z,6.38
2022-12-26T02:39:45.499Z,7.18
2022-12-26T02:42:08.298Z,7.30
2022-12-26T02:45:07.333Z,6.53
2022-12-26T02:47:42.149Z,7.32
2022-12-26T02:50:36.277Z,6.28
2022-12-26T02:53:31.368Z,7.35
2022-12-26T02:56:24.046Z,5.80
2022-12-26T02:59:54.062Z,6.85
2022-12-26T03:02:44.926Z,7.07
2022-12-26T03:05:37.856Z,5.95
2022-12-26T03:08:25.689Z,6.82
2022-12-26T03:11:12.797Z,7.57
2022-12-26T03:13:41.094Z,7.45
2022-12-26T03:16:29.706Z,7.15
2022-12-26T03:19:02.417Z,7.25
2022-12-26T03:21:36.153Z,7.30
2022-12-26T03:24:02.785Z,7.00
2022-12-26T03:26:41.816Z,6.15
2022-12-26T03:29:29.670Z,7.32
2022-12-26T03:31:56.682Z,7.18
2022-12-26T03:34:23.454Z,7.45
2022-12-26T03:37:00.633Z,7.63
2022-12-26T03:39:51.685Z,7.47
2022-12-26T03:42:49.136Z,7.57
2022-12-26T03:45:40.676Z,8.27
2022-12-26T03:48:40.047Z,8.00
2022-12-26T03:51:34.838Z,7.15
2022-12-26T03:54:30.141Z,7.80
2022-12-26T03:57:24.470Z,7.68
2022-12-26T04:00:21.057Z,7.43
2022-12-26T04:03:08.678Z,7.75
2022-12-26T04:05:58.666Z,7.72
2022-12-26T04:08:50.291Z,7.75
2022-12-26T04:11:38.069Z,8.27
2022-12-26T04:14:30.591Z,7.60
2022-12-26T04:17:21.735Z,7.28
2022-12-26T04:20:14.138Z,7.53
2022-12-26T04:23:08.470Z,7.47
2022-12-26T04:26:03.545Z,8.35
2022-12-26T04:28:49.437Z,8.60
2022-12-26T04:31:48.253Z,7.65
2022-12-26T04:34:47.672Z,7.90
2022-12-26T04:37:40.156Z,7.32
2022-12-26T04:40:30.814Z,7.72
2022-12-26T04:43:46.886Z,7.40
2022-12-26T04:46:03.129Z,7.43
2022-12-26T04:48:48.921Z,8.40
2022-12-26T04:51:15.608Z,8.38
2022-12-26T04:53:42.138Z,8.27
2022-12-26T04:56:10.660Z,7.53
2022-12-26T04:58:37.160Z,8.27
2022-12-26T05:01:22.445Z,8.05
2022-12-26T05:04:07.431Z,7.13
2022-12-26T05:06:52.575Z,8.75
2022-12-26T05:09:35.395Z,8.25
2022-12-26T05:12:07.856Z,7.95
2022-12-26T05:14:36.056Z,8.40
2022-12-26T05:17:22.942Z,8.73
2022-12-26T05:20:08.425Z,8.80
2022-12-26T05:22:56.871Z,7.45
2022-12-26T05:25:45.826Z,9.73
2022-12-26T05:28:33.038Z,9.05
2022-12-26T05:30:59.763Z,9.73
2022-12-26T05:33:44.574Z,9.48
2022-12-26T05:36:11.611Z,8.60
2022-12-26T05:38:38.298Z,9.55
2022-12-26T05:41:05.575Z,8.50
2022-12-26T05:43:32.188Z,7.93
2022-12-26T05:45:58.875Z,8.90
2022-12-26T05:48:25.548Z,9.20
2022-12-26T05:50:52.065Z,8.83
2022-12-26T05:53:18.739Z,9.43
2022-12-26T05:55:45.342Z,8.88
2022-12-26T05:58:11.921Z,9.32
2022-12-26T06:00:38.471Z,9.63
2022-12-26T06:03:05.127Z,8.90
2022-12-26T06:05:31.763Z,9.60
2022-12-26T06:07:58.475Z,8.52
2022-12-26T06:10:27.045Z,9.93
2022-12-26T06:12:53.626Z,9.55
2022-12-26T06:15:20.176Z,8.82
2022-12-26T06:17:46.743Z,8.68
2022-12-26T06:20:13.303Z,8.82
2022-12-26T06:22:39.836Z,9.77
2022-12-26T06:25:06.985Z,9.63
2022-12-26T06:27:33.543Z,9.00
2022-12-26T06:30:00.145Z,10.75
2022-12-26T06:32:26.812Z,9.73
2022-12-26T06:34:53.386Z,9.15
2022-12-26T06:37:19.953Z,10.98
2022-12-26T06:39:46.646Z,9.18
2022-12-26T06:42:13.238Z,10.65
2022-12-26T06:44:39.866Z,10.65
2022-12-26T06:47:06.472Z,11.10
2022-12-26T06:49:33.446Z,11.75
2022-12-26T06:52:00.375Z,12.45
2022-12-26T06:54:26.902Z,10.60
2022-12-26T06:56:53.417Z,11.82
2022-12-26T06:59:20.067Z,12.67
2022-12-26T07:01:46.847Z,11.80
2022-12-26T07:04:14.095Z,11.93
2022-12-26T07:06:40.690Z,11.65
2022-12-26T07:09:14.637Z,11.52
2022-12-26T07:11:46.575Z,14.90
2022-12-26T07:14:14.025Z,15.65
2022-12-26T07:16:42.712Z,12.70
2022-12-26T07:19:11.524Z,11.55
2022-12-26T07:21:41.078Z,11.13
2022-12-26T07:24:14.966Z,11.10
2022-12-26T07:26:41.581Z,9.60
2022-12-26T07:29:10.869Z,9.13
2022-12-26T07:31:37.831Z,10.77
2022-12-26T07:34:04.402Z,9.05
2022-12-26T07:36:31.144Z,11.10
2022-12-26T07:38:57.835Z,9.57
2022-12-26T07:41:43.541Z,11.02
2022-12-26T07:44:11.321Z,10.77
2022-12-26T07:46:38.115Z,10.52
2022-12-26T07:49:04.942Z,10.43
2022-12-26T07:51:31.562Z,10.15
2022-12-26T07:53:58.138Z,11.45
2022-12-26T07:56:25.103Z,10.70
2022-12-26T07:58:52.185Z,11.63
2022-12-26T08:01:19.400Z,9.77
2022-12-26T08:03:48.706Z,12.55
2022-12-26T08:06:15.664Z,11.27
2022-12-26T08:08:46.973Z,11.85
2022-12-26T08:11:21.462Z,11.23
2022-12-26T08:13:48.000Z,10.93
2022-12-26T08:16:15.506Z,12.10
2022-12-26T08:18:42.764Z,11.35
2022-12-26T08:21:10.172Z,11.52
2022-12-26T08:23:36.823Z,10.88
2022-12-26T08:26:08.124Z,11.50
2022-12-26T08:28:35.049Z,10.93
2022-12-26T08:31:08.824Z,20.38
2022-12-26T08:33:36.124Z,13.93
2022-12-26T08:36:07.699Z,14.07
2022-12-26T08:38:36.411Z,10.95
2022-12-26T08:41:03.438Z,11.57
2022-12-26T08:43:53.233Z,12.23
2022-12-26T08:46:19.536Z,11.93
2022-12-26T08:48:47.061Z,10.98
2022-12-26T08:51:23.019Z,10.82
2022-12-26T08:53:50.975Z,11.07
2022-12-26T08:56:21.242Z,10.68
2022-12-26T08:58:48.141Z,11.05
2022-12-26T09:01:22.212Z,11.65
2022-12-26T09:03:52.956Z,12.32
2022-12-26T09:06:19.645Z,12.55
2022-12-26T09:08:46.416Z,12.20
2022-12-26T09:11:15.951Z,13.88
2022-12-26T09:13:43.974Z,10.85
2022-12-26T09:16:13.938Z,10.95
2022-12-26T09:18:41.321Z,10.50
2022-12-26T09:21:10.051Z,12.18
2022-12-26T09:23:37.762Z,12.05
2022-12-26T09:26:09.979Z,10.73
2022-12-26T09:28:37.266Z,12.68
2022-12-26T09:31:13.034Z,11.90
2022-12-26T09:33:40.016Z,12.20
2022-12-26T09:36:17.967Z,15.15
2022-12-26T09:38:46.141Z,13.00
2022-12-26T09:41:37.353Z,11.68
2022-12-26T09:44:15.965Z,12.07
2022-12-26T09:47:08.599Z,11.18
2022-12-26T09:49:41.619Z,12.02
2022-12-26T09:52:35.342Z,11.88
2022-12-26T09:55:15.006Z,12.95
2022-12-26T09:57:50.686Z,11.10
2022-12-26T10:00:24.956Z,12.35
2022-12-26T10:02:58.212Z,12.55
2022-12-26T10:05:57.883Z,12.65
2022-12-26T10:08:42.759Z,13.55
2022-12-26T10:11:22.302Z,13.75
2022-12-26T10:14:02.512Z,13.18
2022-12-26T10:16:48.273Z,13.20
2022-12-26T10:19:32.853Z,13.40
2022-12-26T10:22:02.201Z,11.48
2022-12-26T10:24:33.541Z,12.20
2022-12-26T10:27:05.388Z,10.80
2022-12-26T10:29:38.947Z,13.45
2022-12-26T10:32:08.352Z,11.43
2022-12-26T10:34:44.758Z,12.63
2022-12-26T10:37:42.028Z,13.30
2022-12-26T10:40:20.977Z,12.20
2022-12-26T10:42:57.182Z,12.57
2022-12-26T10:45:43.399Z,13.50
2022-12-26T10:48:15.393Z,13.40
2022-12-26T10:50:49.393Z,14.18
2022-12-26T10:53:17.304Z,13.03
2022-12-26T10:55:44.393Z,13.80
2022-12-26T10:58:21.623Z,14.68
2022-12-26T11:00:49.703Z,14.18
2022-12-26T11:03:20.799Z,12.40
2022-12-26T11:06:07.889Z,13.48
2022-12-26T11:08:43.593Z,13.75
2022-12-26T11:11:48.177Z,14.43
2022-12-26T11:14:38.736Z,15.18
2022-12-26T11:17:08.892Z,13.07
2022-12-26T11:19:42.195Z,13.82
2022-12-26T11:22:21.952Z,14.82
2022-12-26T11:25:12.183Z,15.88
2022-12-26T11:27:56.437Z,14.02
2022-12-26T11:30:26.222Z,15.05
2022-12-26T11:33:11.656Z,15.20
2022-12-26T11:35:54.647Z,12.90
2022-12-26T11:38:45.071Z,21.42
2022-12-26T11:41:32.829Z,17.10
2022-12-26T11:44:05.137Z,14.55
2022-12-26T11:46:36.557Z,15.60
2022-12-26T11:49:04.024Z,15.02
2022-12-26T11:51:43.190Z,13.70
2022-12-26T11:54:31.106Z,12.73
2022-12-26T11:57:08.224Z,14.45
2022-12-26T11:59:34.749Z,20.83
2022-12-26T12:02:28.429Z,17.90
2022-12-26T12:05:01.716Z,15.25
2022-12-26T12:07:37.099Z,15.63
2022-12-26T12:10:12.594Z,14.93
2022-12-26T12:12:58.517Z,14.77
2022-12-26T12:15:49.726Z,15.02
2022-12-26T12:18:42.426Z,14.85
2022-12-26T12:21:15.265Z,15.48
2022-12-26T12:23:59.893Z,15.40
2022-12-26T12:26:57.599Z,16.38
2022-12-26T12:29:39.048Z,14.18
2022-12-26T12:32:23.876Z,15.45
2022-12-26T12:35:17.207Z,16.23
2022-12-26T12:37:59.399Z,15.52
2022-12-26T12:40:52.831Z,14.77
2022-12-26T12:43:34.240Z,14.35
2022-12-26T12:46:07.994Z,14.68
2022-12-26T12:48:43.597Z,15.55
2022-12-26T12:51:20.247Z,15.35
2022-12-26T12:54:12.496Z,13.95
2022-12-26T12:56:50.122Z,15.18
2022-12-26T12:59:34.802Z,12.30
2022-12-26T13:02:15.332Z,15.73
2022-12-26T13:04:51.269Z,16.10
2022-12-26T13:07:27.311Z,21.10
2022-12-26T13:10:00.311Z,22.58
2022-12-26T13:12:31.551Z,18.15
2022-12-26T13:15:16.225Z,15.80
2022-12-26T13:17:53.584Z,15.13
2022-12-26T13:20:56.541Z,15.88
2022-12-26T13:23:59.448Z,15.80
2022-12-26T13:26:32.121Z,15.88
2022-12-26T13:28:58.612Z,13.88
2022-12-26T13:31:25.596Z,15.57
2022-12-26T13:33:52.692Z,15.05
2022-12-26T13:36:41.456Z,16.38
2022-12-26T13:39:14.156Z,16.60
2022-12-26T13:42:08.696Z,14.68
2022-12-26T13:44:36.759Z,17.50
2022-12-26T13:47:04.026Z,17.73
2022-12-26T13:49:41.612Z,14.60
2022-12-26T13:52:10.914Z,17.55
2022-12-26T13:54:58.522Z,16.25
2022-12-26T13:57:36.758Z,16.30
2022-12-26T14:00:08.322Z,16.80
2022-12-26T14:03:20.071Z,14.57
2022-12-26T14:05:59.319Z,15.73
2022-12-26T14:08:34.966Z,14.65
2022-12-26T14:11:14.855Z,15.55
2022-12-26T14:13:59.889Z,15.48
2022-12-26T14:17:14.140Z,15.80
2022-12-26T14:20:02.222Z,16.23
2022-12-26T14:22:43.236Z,16.55
2022-12-26T14:25:31.356Z,14.07
2022-12-26T14:28:14.526Z,16.33
2022-12-26T14:31:11.613Z,15.40
2022-12-26T14:33:38.158Z,14.65
2022-12-26T14:36:11.840Z,17.33
2022-12-26T14:38:52.341Z,14.20
2022-12-26T14:41:38.390Z,16.55
2022-12-26T14:44:20.174Z,16.13
2022-12-26T14:46:49.807Z,16.02
2022-12-26T14:49:42.697Z,17.48
2022-12-26T14:52:24.621Z,15.60
2022-12-26T14:54:55.852Z,17.38
2022-12-26T14:57:55.071Z,15.77
2022-12-26T15:00:21.692Z,13.93
2022-12-26T15:03:12.594Z,17.25
2022-12-26T15:05:44.755Z,16.33
2022-12-26T15:08:43.494Z,15.73
2022-12-26T15:11:34.560Z,17.50
2022-12-26T15:14:19.346Z,24.88
2022-12-26T15:17:21.285Z,17.35
2022-12-26T15:20:19.064Z,16.83
2022-12-26T15:23:11.968Z,15.82
2022-12-26T15:26:12.525Z,13.98
2022-12-26T15:29:08.040Z,16.48
2022-12-26T15:31:56.160Z,16.90
2022-12-26T15:34:39.669Z,15.65
2022-12-26T15:37:18.463Z,15.13
2022-12-26T15:39:51.017Z,16.23
2022-12-26T15:42:31.313Z,14.30
2022-12-26T15:45:16.460Z,17.55
2022-12-26T15:48:03.412Z,13.50
2022-12-26T15:50:38.431Z,16.88
2022-12-26T15:53:20.282Z,16.67
2022-12-26T15:55:55.772Z,17.05
2022-12-26T15:58:43.443Z,17.35
2022-12-26T16:01:11.625Z,16.50
2022-12-26T18:46:20.758Z,20.15
2022-12-26T18:48:48.055Z,18.55
2022-12-26T18:51:14.904Z,19.70
2022-12-26T18:53:41.587Z,18.25
2022-12-26T18:56:14.069Z,19.45
2022-12-26T18:58:40.665Z,19.17
2022-12-26T19:01:07.403Z,20.90
2022-12-26T19:03:34.217Z,19.27
2022-12-26T19:08:27.391Z,21.15
2022-12-26T19:10:55.417Z,20.92
2022-12-26T19:13:22.179Z,20.88
2022-12-26T19:15:49.877Z,21.65
2022-12-26T19:21:12.505Z,20.20
2022-12-26T19:23:39.418Z,21.60
2022-12-26T19:26:15.095Z,23.38
2022-12-26T19:28:44.920Z,21.17
2022-12-26T19:31:13.920Z,22.67
2022-12-26T19:33:41.100Z,21.42
2022-12-26T19:36:08.536Z,21.42
2022-12-26T19:38:35.501Z,21.27
2022-12-26T19:41:17.753Z,20.98
2022-12-26T19:43:44.441Z,22.20
2022-12-26T19:46:15.576Z,21.83
2022-12-26T19:48:44.778Z,21.15
2022-12-26T19:51:13.792Z,20.83
2022-12-26T19:53:42.257Z,18.93
2022-12-26T19:56:11.670Z,18.00
2022-12-26T20:25:49.588Z,21.37
2022-12-26T22:05:19.664Z,23.77
2022-12-26T22:07:47.150Z,23.75
2022-12-26T22:10:34.658Z,25.75
2022-12-26T22:13:02.977Z,23.90
2022-12-26T22:15:48.200Z,22.45
2022-12-26T22:20:41.579Z,23.58
2022-12-26T22:23:08.188Z,25.70
2022-12-26T22:25:34.766Z,23.23
2022-12-26T22:28:01.353Z,21.30
2022-12-26T22:30:28.086Z,23.70
2022-12-26T22:50:00.757Z,22.65
2022-12-26T22:52:28.731Z,21.48
2022-12-26T22:54:55.261Z,25.10
2022-12-26T22:57:22.626Z,21.65
2022-12-26T23:02:35.905Z,23.40
2022-12-26T23:05:03.512Z,22.15
2022-12-26T23:07:30.431Z,24.77
2022-12-26T23:09:57.130Z,22.65
2022-12-26T23:12:42.572Z,23.50
2022-12-26T23:15:18.154Z,24.58
2022-12-26T23:18:35.431Z,22.70
2022-12-26T23:21:31.626Z,22.40
2022-12-26T23:23:58.154Z,22.80
2022-12-26T23:26:24.674Z,22.75
2022-12-26T23:29:09.627Z,22.45
2022-12-26T23:31:36.222Z,21.80
2022-12-26T23:34:02.825Z,20.30
2022-12-26T23:36:29.328Z,21.80
2022-12-26T23:38:55.965Z,21.00
